Wilson, KS (67490)

12:22 AM CDT on August 30, 2016 (GMT -0500)
Postrock Highway | | Change Station

Elev 1522 ft 39.01 °N, 98.52 °W | Updated 2 minutes ago

Mostly Cloudy
Mostly Cloudy
69.0 °F
Feels Like 69.0 °F
N
0.0
Wind Variable Wind from North
Gusts 3.0 mph

Today
High -- | Low -- °F
--% Chance of Precip.
Yesterday
High -- | Low -- °F
Precip. -- in
Pressure 30.15 in
Visibility 5.0 miles
Clouds Mostly Cloudy 300 ft
Dew Point 68 °F
Humidity 98%
Rainfall 0.00 in
Snow Depth Not available.
7:01 AM 8:06 PM
Waning Crescent, 5% visible
METAR KRSL 300449Z AUTO 34004KT 5SM BR BKN003 20/19 A3019 RMK AO2 SLP210 T02000194
Pressure 30.15 in
Visibility 5.0 miles
Clouds Mostly Cloudy 300 ft
Dew Point 68 °F
Humidity 98%
Rainfall 0.00 in
Snow Depth Not available.
7:01 AM 8:06 PM
Waning Crescent, 5% visible
METAR KRSL 300449Z AUTO 34004KT 5SM BR BKN003 20/19 A3019 RMK AO2 SLP210 T02000194

10-Day Weather Forecast

Almanac

Astronomy

Aug. 30, 2016 Rise Set
Actual Time
Civil Twilight
Nautical Twilight
Astronomical Twilight
Moon
Length of Visible Light
Length of Day
Tomorrow will be .
, % of the Moon is Illuminated

Today's Extremes

State Highs State Lows

Community

WunderPhotos

Upload Photos

1,935,793 photos uploaded!

WunderBlog® & News

Nearby

Air Quality

  Air Quality AQ Index Pollutant
Not available.

Snow Depth

Station Depth Elevation

Earthquake Activity

City Distance Mag. Time & Date
Minimum magnitude displayed is 2.5.

Coastal Water Temperatures

Place Temperature

Stations

Nearby Weather Stations

Station Location Temp. Windchill Dew Point Humidity Wind Precip. Elev Updated Type
                   

Watches & Warnings

There are currently no watches in effect.